createdAt,value
2023-03-12T00:01:52.030Z,-1.52
2023-03-12T00:04:54.455Z,-1.55
2023-03-12T00:07:59.862Z,-1.45
2023-03-12T00:11:06.814Z,-1.48
2023-03-12T00:14:11.355Z,-1.38
2023-03-12T00:17:14.033Z,-1.33
2023-03-12T00:20:16.821Z,-1.12
2023-03-12T00:23:19.073Z,-1.18
2023-03-12T00:26:22.232Z,-1.03
2023-03-12T00:29:24.981Z,-0.95
2023-03-12T00:32:28.030Z,-0.85
2023-03-12T00:35:30.581Z,-0.96
2023-03-12T00:38:33.014Z,-0.91
2023-03-12T00:41:35.389Z,-0.97
2023-03-12T00:44:37.843Z,-0.91
2023-03-12T00:47:40.496Z,-0.94
2023-03-12T00:50:43.792Z,-0.93
2023-03-12T00:53:46.435Z,-1.04
2023-03-12T00:56:49.176Z,-0.85
2023-03-12T00:59:51.513Z,-1.06
2023-03-12T01:02:53.959Z,-1.11
2023-03-12T01:05:56.396Z,-1.11
2023-03-12T01:08:58.882Z,-0.80
2023-03-12T01:12:01.194Z,-0.94
2023-03-12T01:15:04.903Z,-0.82
2023-03-12T01:18:07.422Z,-0.96
2023-03-12T01:21:10.031Z,-0.98
2023-03-12T01:24:12.660Z,-0.79
2023-03-12T01:27:15.263Z,-0.88
2023-03-12T01:30:17.849Z,-0.83
2023-03-12T01:33:23.038Z,-1.20
2023-03-12T01:36:28.116Z,-1.04
2023-03-12T01:39:30.777Z,-1.10
2023-03-12T01:42:33.842Z,-1.15
2023-03-12T01:45:51.584Z,-0.86
2023-03-12T01:49:23.022Z,-1.26
2023-03-12T01:52:29.576Z,-1.04
2023-03-12T01:55:32.495Z,-1.27
2023-03-12T01:58:37.050Z,-1.12
2023-03-12T02:01:40.215Z,-1.34
2023-03-12T02:04:44.408Z,-1.59
2023-03-12T02:07:47.437Z,-1.38
2023-03-12T02:10:50.028Z,-1.18
2023-03-12T02:13:52.684Z,-1.00
2023-03-12T02:16:56.951Z,-1.47
2023-03-12T02:20:16.313Z,-1.53
2023-03-12T02:23:32.976Z,-1.57
2023-03-12T02:26:37.902Z,-1.39
2023-03-12T02:29:42.209Z,-1.40
2023-03-12T02:32:46.371Z,-1.35
2023-03-12T02:35:49.116Z,-1.46
2023-03-12T02:38:53.462Z,-1.71
2023-03-12T02:41:57.970Z,-1.54
2023-03-12T02:45:01.390Z,-1.41
2023-03-12T02:48:04.712Z,-1.36
2023-03-12T02:51:07.214Z,-1.43
2023-03-12T02:54:10.219Z,-1.36
2023-03-12T02:57:12.654Z,-1.08
2023-03-12T03:00:16.393Z,-1.15
2023-03-12T03:03:23.366Z,-1.21
2023-03-12T03:06:25.854Z,-1.59
2023-03-12T03:09:29.755Z,-1.59
2023-03-12T03:12:33.033Z,-1.34
2023-03-12T03:15:36.296Z,-1.27
2023-03-12T03:18:38.804Z,-1.06
2023-03-12T03:21:41.535Z,-1.11
2023-03-12T03:24:44.324Z,-0.93
2023-03-12T03:27:46.873Z,-1.11
2023-03-12T03:30:49.475Z,-0.69
2023-03-12T03:33:52.260Z,-1.04
2023-03-12T03:36:54.736Z,-0.81
2023-03-12T03:39:58.567Z,-0.81
2023-03-12T03:43:01.174Z,-0.67
2023-03-12T03:46:05.935Z,-0.75
2023-03-12T03:49:12.332Z,-0.68
2023-03-12T03:52:16.717Z,-0.72
2023-03-12T03:55:19.502Z,-0.85
2023-03-12T03:58:22.094Z,-0.71
2023-03-12T04:01:24.833Z,-0.95
2023-03-12T04:04:27.698Z,-0.75
2023-03-12T04:07:30.012Z,-0.95
2023-03-12T04:10:32.440Z,-0.81
2023-03-12T04:13:35.416Z,-1.01
2023-03-12T04:16:37.956Z,-0.85
2023-03-12T04:19:40.998Z,-1.07
2023-03-12T04:22:43.399Z,-1.06
2023-03-12T04:25:46.632Z,-1.07
2023-03-12T04:28:49.037Z,-1.07
2023-03-12T04:31:51.428Z,-0.99
2023-03-12T04:34:54.029Z,-0.95
2023-03-12T04:37:56.720Z,-1.05
2023-03-12T04:41:05.621Z,-0.74
2023-03-12T04:44:12.261Z,-0.94
2023-03-12T04:47:15.655Z,-0.93
2023-03-12T04:50:18.577Z,-0.85
2023-03-12T04:53:21.392Z,-1.11
2023-03-12T04:56:25.078Z,-1.14
2023-03-12T04:59:27.471Z,-1.27
2023-03-12T05:02:29.945Z,-1.37
2023-03-12T05:05:32.553Z,-1.28
2023-03-12T05:08:35.023Z,-1.38
2023-03-12T05:11:39.842Z,-1.30
2023-03-12T05:14:44.977Z,-1.37
2023-03-12T05:17:47.530Z,-1.42
2023-03-12T05:21:04.825Z,-1.60
2023-03-12T05:24:07.640Z,-1.60
2023-03-12T05:27:10.404Z,-1.55
2023-03-12T05:30:13.202Z,-1.59
2023-03-12T05:33:15.801Z,-1.74
2023-03-12T05:36:18.333Z,-1.74
2023-03-12T05:39:22.331Z,-1.70
2023-03-12T05:42:25.914Z,-1.57
2023-03-12T05:45:28.521Z,-1.65
2023-03-12T05:48:33.742Z,-1.65
2023-03-12T05:51:36.925Z,-1.75
2023-03-12T05:54:39.303Z,-1.60
2023-03-12T05:57:42.053Z,-1.36
2023-03-12T06:00:45.290Z,-1.23
2023-03-12T06:03:49.208Z,-1.12
2023-03-12T06:06:51.642Z,-1.17
2023-03-12T06:09:54.033Z,-1.27
2023-03-12T06:12:56.457Z,-1.24
2023-03-12T06:16:06.754Z,-1.35
2023-03-12T06:19:14.337Z,-1.49
2023-03-12T06:22:18.731Z,-1.22
2023-03-12T06:25:21.524Z,-1.21
2023-03-12T06:28:23.899Z,-0.84
2023-03-12T06:31:27.129Z,-0.54
2023-03-12T06:34:29.530Z,-0.50
2023-03-12T06:37:32.577Z,-0.68
2023-03-12T06:40:34.946Z,-0.58
2023-03-12T06:43:38.605Z,-0.52
2023-03-12T06:46:42.727Z,-0.55
2023-03-12T06:49:45.465Z,-0.69
2023-03-12T06:52:47.797Z,-0.67
2023-03-12T06:55:51.782Z,-0.30
2023-03-12T06:58:54.293Z,-0.56
2023-03-12T07:01:57.152Z,-0.44
2023-03-12T07:04:59.762Z,-0.38
2023-03-12T07:08:02.221Z,-0.58
2023-03-12T07:11:04.913Z,-0.52
2023-03-12T07:14:07.312Z,-0.21
2023-03-12T07:17:09.847Z,0.13
2023-03-12T07:20:12.992Z,-0.52
2023-03-12T07:23:15.648Z,-0.32
2023-03-12T07:26:18.488Z,-0.59
2023-03-12T07:29:20.998Z,-0.69
2023-03-12T07:32:23.461Z,-1.37
2023-03-12T07:35:26.282Z,-1.04
2023-03-12T07:38:28.979Z,-0.97
2023-03-12T07:41:31.841Z,-0.95
2023-03-12T07:44:36.887Z,-1.01
2023-03-12T07:47:39.529Z,-0.69
2023-03-12T07:50:42.110Z,-0.66
2023-03-12T07:53:44.503Z,-0.37
2023-03-12T07:56:46.928Z,-0.48
2023-03-12T07:59:49.386Z,-0.11
2023-03-12T08:02:52.548Z,-0.09
2023-03-12T08:06:00.259Z,-0.07
2023-03-12T08:09:02.704Z,-0.35
2023-03-12T08:12:06.474Z,-0.04
2023-03-12T08:15:09.576Z,-0.03
2023-03-12T08:18:11.877Z,-0.09
2023-03-12T08:21:16.493Z,-0.01
2023-03-12T08:24:18.998Z,-0.19
2023-03-12T08:27:21.414Z,0.47
2023-03-12T08:30:23.870Z,0.28
2023-03-12T08:33:26.890Z,0.02
2023-03-12T08:36:29.417Z,0.47
2023-03-12T08:39:32.061Z,0.26
2023-03-12T08:42:34.468Z,0.70
2023-03-12T08:45:37.396Z,0.95
2023-03-12T08:48:41.081Z,0.98
2023-03-12T08:51:43.619Z,0.96
2023-03-12T08:54:46.078Z,0.94
2023-03-12T08:57:48.549Z,1.07
2023-03-12T09:00:52.017Z,1.28
2023-03-12T09:03:55.473Z,0.92
2023-03-12T09:06:58.079Z,0.84
2023-03-12T09:10:00.468Z,0.78
2023-03-12T09:13:03.663Z,0.82
2023-03-12T09:16:08.038Z,1.07
2023-03-12T09:19:11.600Z,1.13
2023-03-12T09:22:15.300Z,1.02
2023-03-12T09:25:19.728Z,1.23
2023-03-12T09:28:22.959Z,1.08
2023-03-12T09:31:27.124Z,1.21
2023-03-12T09:34:30.464Z,1.79
2023-03-12T09:37:32.901Z,1.59
2023-03-12T09:40:41.545Z,1.57
2023-03-12T09:43:53.057Z,1.28
2023-03-12T09:46:58.999Z,1.14
2023-03-12T09:50:09.160Z,1.40
2023-03-12T09:53:17.884Z,1.51
2023-03-12T09:56:25.120Z,1.65
2023-03-12T09:59:29.123Z,1.61
2023-03-12T10:02:40.633Z,1.78
2023-03-12T10:05:48.226Z,1.76
2023-03-12T10:09:20.520Z,1.92
2023-03-12T10:12:46.224Z,1.91
2023-03-12T10:16:07.919Z,2.02
2023-03-12T10:19:20.769Z,2.17
2023-03-12T10:22:33.317Z,1.83
2023-03-12T10:25:53.648Z,2.02
2023-03-12T10:29:21.548Z,2.10
2023-03-12T10:32:43.140Z,2.10
2023-03-12T10:35:45.699Z,2.15
2023-03-12T10:38:51.422Z,1.91
2023-03-12T10:41:53.935Z,2.01
2023-03-12T10:45:16.127Z,2.16
2023-03-12T10:48:23.791Z,2.16
2023-03-12T10:51:26.269Z,2.09
2023-03-12T10:54:40.911Z,2.36
2023-03-12T10:57:43.399Z,2.51
2023-03-12T11:00:57.048Z,2.43
2023-03-12T11:04:18.083Z,2.42
2023-03-12T11:07:26.222Z,2.05
2023-03-12T11:10:44.687Z,2.02
2023-03-12T11:13:47.205Z,2.09
2023-03-12T11:16:50.868Z,1.94
2023-03-12T11:19:54.060Z,1.92
2023-03-12T11:22:57.052Z,1.74
2023-03-12T11:26:18.743Z,2.22
2023-03-12T11:29:29.804Z,2.51
2023-03-12T11:32:36.300Z,3.08
2023-03-12T11:36:02.208Z,3.32
2023-03-12T11:39:20.753Z,3.47
2023-03-12T11:42:58.608Z,2.87
2023-03-12T11:46:28.685Z,2.49
2023-03-12T11:49:51.970Z,2.74
2023-03-12T11:53:45.529Z,3.31
2023-03-12T11:56:55.034Z,3.14
2023-03-12T12:00:12.483Z,3.56
2023-03-12T12:03:26.750Z,3.65
2023-03-12T12:06:45.832Z,3.60
2023-03-12T12:09:49.464Z,3.89
2023-03-12T12:13:07.161Z,3.60
2023-03-12T12:16:36.914Z,3.63
2023-03-12T12:19:56.002Z,3.89
2023-03-12T12:23:10.931Z,4.46
2023-03-12T12:26:14.667Z,4.31
2023-03-12T12:29:50.257Z,4.20
2023-03-12T12:33:01.051Z,4.33
2023-03-12T12:36:03.833Z,3.98
2023-03-12T12:39:20.145Z,3.88
2023-03-12T12:42:27.054Z,3.85
2023-03-12T12:45:31.146Z,3.32
2023-03-12T12:48:39.289Z,2.83
2023-03-12T12:51:45.179Z,2.90
2023-03-12T12:55:07.947Z,2.62
2023-03-12T12:58:18.343Z,2.82
2023-03-12T13:01:21.430Z,3.18
2023-03-12T13:04:31.796Z,3.22
2023-03-12T13:07:34.857Z,3.44
2023-03-12T13:10:37.643Z,3.21
2023-03-12T13:13:40.164Z,3.18
2023-03-12T13:16:47.100Z,3.19
2023-03-12T13:20:00.937Z,3.44
2023-03-12T13:23:13.686Z,3.26
2023-03-12T13:26:52.132Z,3.35
2023-03-12T13:29:58.097Z,3.36
2023-03-12T13:33:03.556Z,3.77
2023-03-12T13:36:17.960Z,3.80
2023-03-12T13:39:27.628Z,3.47
2023-03-12T13:42:39.218Z,3.85
2023-03-12T13:46:07.803Z,3.13
2023-03-12T13:49:15.121Z,3.74
2023-03-12T13:52:31.176Z,3.68
2023-03-12T13:55:39.436Z,3.90
2023-03-12T13:58:47.129Z,4.08
2023-03-12T14:01:52.098Z,3.53
2023-03-12T14:04:57.757Z,3.63
2023-03-12T14:08:10.963Z,3.56
2023-03-12T14:11:25.367Z,3.37
2023-03-12T14:14:30.397Z,3.69
2023-03-12T14:17:34.429Z,3.58
2023-03-12T14:20:39.216Z,3.72
2023-03-12T14:23:56.948Z,3.62
2023-03-12T14:27:01.404Z,3.46
2023-03-12T14:30:24.179Z,3.01
2023-03-12T14:33:29.380Z,3.04
2023-03-12T14:37:00.916Z,2.60
2023-03-12T14:40:19.340Z,2.37
2023-03-12T14:43:27.745Z,1.98
2023-03-12T14:46:30.241Z,2.05
2023-03-12T14:49:32.712Z,2.33
2023-03-12T14:52:35.308Z,2.15
2023-03-12T14:55:41.387Z,2.06
2023-03-12T14:58:47.477Z,2.02
2023-03-12T15:01:49.909Z,1.93
2023-03-12T15:04:56.063Z,2.21
2023-03-12T15:08:03.025Z,1.81
2023-03-12T15:11:05.999Z,2.03
2023-03-12T15:14:14.509Z,1.96
2023-03-12T15:17:21.303Z,1.87
2023-03-12T15:20:25.150Z,1.85
2023-03-12T15:23:29.226Z,1.59
2023-03-12T15:26:33.255Z,1.63
2023-03-12T15:29:42.038Z,1.61
2023-03-12T15:33:08.264Z,1.78
2023-03-12T15:36:21.293Z,1.68
2023-03-12T15:39:34.167Z,1.47
2023-03-12T15:42:40.229Z,1.77
2023-03-12T15:45:42.610Z,1.61
2023-03-12T15:48:50.506Z,1.07
2023-03-12T15:52:01.218Z,1.39
2023-03-12T15:55:15.653Z,1.63
2023-03-12T15:58:35.533Z,1.57
2023-03-12T16:01:53.010Z,1.59
2023-03-12T16:04:55.562Z,1.50
2023-03-12T16:07:58.610Z,1.51
2023-03-12T16:11:01.792Z,1.49
2023-03-12T16:14:24.692Z,1.33
2023-03-12T16:17:27.035Z,1.27
2023-03-12T16:20:29.939Z,1.27
2023-03-12T16:23:32.627Z,1.28
2023-03-12T16:26:47.280Z,1.23
2023-03-12T16:29:50.097Z,1.30
2023-03-12T16:32:52.560Z,1.30
2023-03-12T16:35:55.900Z,1.23
2023-03-12T16:38:58.357Z,1.16
2023-03-12T16:42:02.129Z,1.06
2023-03-12T16:45:05.040Z,0.96
2023-03-12T16:48:07.466Z,0.87
2023-03-12T16:51:14.858Z,0.77
2023-03-12T16:54:17.197Z,0.74
2023-03-12T16:57:40.883Z,0.90
2023-03-12T17:00:43.512Z,0.85
2023-03-12T17:03:49.689Z,0.83
2023-03-12T17:06:52.183Z,0.83
2023-03-12T17:09:55.241Z,0.56
2023-03-12T17:12:57.855Z,0.56
2023-03-12T17:16:00.387Z,0.52
2023-03-12T17:19:02.894Z,0.45
2023-03-12T17:22:05.336Z,0.23
2023-03-12T17:25:09.607Z,0.42
2023-03-12T17:28:12.609Z,0.33
2023-03-12T17:31:14.970Z,0.28
2023-03-12T17:34:18.080Z,0.38
2023-03-12T17:37:20.446Z,0.33
2023-03-12T17:40:23.414Z,0.37
2023-03-12T17:43:25.965Z,0.37
2023-03-12T17:46:29.811Z,0.45
2023-03-12T17:49:32.425Z,0.49
2023-03-12T17:52:35.092Z,0.49
2023-03-12T17:55:37.630Z,0.53
2023-03-12T17:58:40.642Z,0.41
2023-03-12T18:01:43.062Z,0.46
2023-03-12T18:04:45.439Z,0.44
2023-03-12T18:07:48.824Z,0.40
2023-03-12T18:10:51.478Z,0.48
2023-03-12T18:13:54.143Z,0.52
2023-03-12T18:16:56.568Z,0.48
2023-03-12T18:19:58.980Z,0.52
2023-03-12T18:23:01.435Z,0.52
2023-03-12T18:26:04.837Z,0.50
2023-03-12T18:29:07.248Z,0.48
2023-03-12T18:32:09.820Z,0.44
2023-03-12T18:35:12.170Z,0.45
2023-03-12T18:38:14.708Z,0.33
2023-03-12T18:41:17.276Z,0.26
2023-03-12T18:44:19.696Z,0.25
2023-03-12T18:47:22.110Z,0.36
2023-03-12T18:50:24.529Z,0.29
2023-03-12T18:53:26.894Z,0.32
2023-03-12T18:56:29.875Z,0.37
2023-03-12T18:59:32.570Z,0.42
2023-03-12T19:02:34.957Z,0.48
2023-03-12T19:05:37.379Z,0.40
2023-03-12T19:08:40.258Z,0.50
2023-03-12T19:11:42.602Z,0.60
2023-03-12T19:14:45.093Z,0.57
2023-03-12T19:17:47.531Z,0.52
2023-03-12T19:20:49.974Z,0.47
2023-03-12T19:23:53.230Z,0.57
2023-03-12T19:26:56.148Z,0.55
2023-03-12T19:29:58.676Z,0.51
2023-03-12T19:33:01.257Z,0.43
2023-03-12T19:36:04.242Z,0.36
2023-03-12T19:39:15.174Z,0.38
2023-03-12T19:42:23.186Z,0.49
2023-03-12T19:45:26.061Z,0.43
2023-03-12T19:48:28.783Z,0.51
2023-03-12T19:51:32.018Z,0.52
2023-03-12T19:54:34.609Z,0.46
2023-03-12T19:57:37.041Z,0.39
2023-03-12T20:00:39.586Z,0.50
2023-03-12T20:03:43.825Z,0.62
2023-03-12T20:06:46.424Z,0.59
2023-03-12T20:09:48.804Z,0.55
2023-03-12T20:12:51.119Z,0.56
2023-03-12T20:15:53.705Z,0.59
2023-03-12T20:18:55.967Z,0.57
2023-03-12T20:21:58.355Z,0.61
2023-03-12T20:25:01.062Z,0.62
2023-03-12T20:28:03.744Z,0.55
2023-03-12T20:31:10.459Z,0.57
2023-03-12T20:34:13.046Z,0.59
2023-03-12T20:37:15.362Z,0.67
2023-03-12T20:40:18.072Z,0.57
2023-03-12T20:43:20.317Z,0.61
2023-03-12T20:46:23.210Z,0.50
2023-03-12T20:49:25.835Z,0.59
2023-03-12T20:52:28.316Z,0.61
2023-03-12T20:55:30.841Z,0.67
2023-03-12T20:58:33.441Z,0.75
2023-03-12T21:01:36.180Z,0.66
2023-03-12T21:04:38.850Z,0.60
2023-03-12T21:07:41.451Z,0.66
2023-03-12T21:10:43.723Z,0.70
2023-03-12T21:13:46.306Z,0.66
2023-03-12T21:16:49.300Z,0.72
2023-03-12T21:19:51.669Z,0.83
2023-03-12T21:22:54.286Z,0.77
2023-03-12T21:26:00.960Z,0.85
2023-03-12T21:29:03.608Z,0.70
2023-03-12T21:32:06.225Z,0.59
2023-03-12T21:35:09.826Z,0.83
2023-03-12T21:38:12.895Z,0.69
2023-03-12T21:41:19.150Z,0.66
2023-03-12T21:44:21.674Z,0.52
2023-03-12T21:47:24.439Z,0.52
2023-03-12T21:50:26.938Z,0.52
2023-03-12T21:53:29.627Z,0.59
2023-03-12T21:56:32.294Z,0.34
2023-03-12T21:59:34.648Z,0.48
2023-03-12T22:02:36.980Z,0.38
2023-03-12T22:05:39.415Z,0.53
2023-03-12T22:08:42.545Z,0.42
2023-03-12T22:11:45.496Z,0.27
2023-03-12T22:14:47.925Z,0.33
2023-03-12T22:17:51.134Z,0.26
2023-03-12T22:20:54.776Z,0.41
2023-03-12T22:23:58.740Z,0.29
2023-03-12T22:27:03.395Z,0.20
2023-03-12T22:30:06.332Z,0.25
2023-03-12T22:33:08.994Z,0.14
2023-03-12T22:36:13.256Z,-0.01
2023-03-12T22:39:17.502Z,0.03
2023-03-12T22:42:20.017Z,0.12
2023-03-12T22:45:23.201Z,0.03
2023-03-12T22:48:25.666Z,0.18
2023-03-12T22:51:30.138Z,0.29
2023-03-12T22:54:32.408Z,0.20
2023-03-12T22:57:36.210Z,0.28
2023-03-12T23:00:38.624Z,0.32
2023-03-12T23:03:43.068Z,0.17
2023-03-12T23:06:45.510Z,0.21
2023-03-12T23:09:48.286Z,0.19
2023-03-12T23:12:51.083Z,0.21
2023-03-12T23:15:54.165Z,0.09
2023-03-12T23:18:56.761Z,0.13
2023-03-12T23:21:59.360Z,0.10
2023-03-12T23:25:01.694Z,0.20
2023-03-12T23:28:05.344Z,0.24
2023-03-12T23:31:09.032Z,0.36
2023-03-12T23:34:11.397Z,0.37
2023-03-12T23:37:14.445Z,0.40
2023-03-12T23:40:17.299Z,0.54
2023-03-12T23:43:19.648Z,0.59
2023-03-12T23:46:22.281Z,0.70
2023-03-12T23:49:24.697Z,0.78
2023-03-12T23:52:27.708Z,0.76
2023-03-12T23:55:30.158Z,0.79
2023-03-12T23:58:32.645Z,0.64
